Time;durP1;ratioP1;P1;durP2;ratioP2;P2;SDS_P1;SDS_P2;PMS_P1;PMS_P2;Temp;Humidity;BMP_temperature;BMP_pressure;BME280_temperature;BME280_humidity;BME280_pressure;Samples;Min_cycle;Max_cycle;Signal;HPM_P1;HPM_P2
2024/03/24 00:00:28;;;;;;;1.98;0.80;;;5.90;99.90;;;;;;5038665;28;20405;-79
2024/03/24 00:02:54;;;;;;;1.40;0.77;;;5.50;99.90;;;;;;5036568;28;20421;-78
2024/03/24 00:05:19;;;;;;;1.33;1.03;;;5.70;99.90;;;;;;5037362;28;20434;-78
2024/03/24 00:07:45;;;;;;;4.80;1.20;;;5.70;99.90;;;;;;5037825;28;20381;-77
2024/03/24 00:10:12;;;;;;;1.50;1.00;;;5.80;99.90;;;;;;5037623;28;20501;-77
2024/03/24 00:12:38;;;;;;;3.20;1.17;;;;;;;;;;5036575;28;20397;-76
2024/03/24 00:15:04;;;;;;;3.30;1.00;;;5.80;99.90;;;;;;5036749;28;20397;-77
2024/03/24 00:17:29;;;;;;;3.30;1.38;;;5.40;99.90;;;;;;5036217;28;20905;-76
2024/03/24 00:19:55;;;;;;;1.30;1.20;;;5.80;99.90;;;;;;5037872;28;20404;-76
2024/03/24 00:22:20;;;;;;;4.20;1.60;;;5.50;99.90;;;;;;5037899;28;20435;-75
2024/03/24 00:24:46;;;;;;;2.92;1.33;;;5.50;99.90;;;;;;5036533;28;20977;-77
2024/03/24 00:27:12;;;;;;;1.30;1.00;;;5.50;99.90;;;;;;5035971;28;20940;-78
2024/03/24 00:29:37;;;;;;;4.93;1.30;;;6.10;99.90;;;;;;5049673;28;20386;-77
2024/03/24 00:32:03;;;;;;;1.90;1.30;;;4.30;99.90;;;;;;5047815;28;20464;-77
2024/03/24 00:34:29;;;;;;;1.25;1.15;;;5.80;99.90;;;;;;5049529;28;20393;-77
2024/03/24 00:36:54;;;;;;;1.60;1.20;;;5.60;99.90;;;;;;5048866;28;20401;-77
2024/03/24 00:39:20;;;;;;;4.40;1.17;;;6.00;99.90;;;;;;5050745;28;20432;-77
2024/03/24 00:41:45;;;;;;;1.10;0.80;;;5.50;99.90;;;;;;5050827;28;20412;-77
2024/03/24 00:44:11;;;;;;;1.70;1.20;;;5.80;99.90;;;;;;5053162;28;20493;-77
2024/03/24 00:46:36;;;;;;;2.10;1.40;;;4.00;99.90;;;;;;5053143;28;20378;-77
2024/03/24 00:49:03;;;;;;;2.08;1.23;;;5.10;99.90;;;;;;5054307;28;20389;-77
2024/03/24 00:51:29;;;;;;;1.40;1.00;;;5.70;99.90;;;;;;5054216;28;20403;-77
2024/03/24 00:53:54;;;;;;;1.07;0.80;;;5.10;99.90;;;;;;5055137;28;20761;-77
2024/03/24 00:56:20;;;;;;;1.92;1.13;;;5.20;99.90;;;;;;5055996;28;20768;-77
2024/03/24 00:58:45;;;;;;;0.90;0.80;;;5.30;99.90;;;;;;5059693;28;20404;-77
2024/03/24 01:01:11;;;;;;;1.33;1.20;;;5.30;99.90;;;;;;5058614;28;20417;-77
2024/03/24 01:03:36;;;;;;;1.10;0.80;;;5.40;99.90;;;;;;5058327;28;20719;-78
2024/03/24 01:06:04;;;;;;;1.30;1.00;;;4.90;99.90;;;;;;5053343;28;20415;-77
2024/03/24 01:08:29;;;;;;;1.83;0.85;;;5.50;99.90;;;;;;5054007;28;20792;-76
2024/03/24 01:10:55;;;;;;;2.38;1.23;;;5.30;99.90;;;;;;5052455;28;20442;-76
2024/03/24 01:13:22;;;;;;;2.90;0.80;;;5.20;99.90;;;;;;5051901;28;20409;-77
2024/03/24 01:15:47;;;;;;;3.10;1.20;;;5.30;99.90;;;;;;5051149;28;20913;-77
2024/03/24 01:18:13;;;;;;;2.17;0.70;;;5.40;99.90;;;;;;5052404;28;20391;-78
2024/03/24 01:20:38;;;;;;;0.85;0.70;;;5.30;99.90;;;;;;5053179;28;20471;-77
2024/03/24 01:23:04;;;;;;;1.65;0.70;;;;;;;;;;5051435;28;20389;-76
2024/03/24 01:25:31;;;;;;;1.10;0.73;;;5.70;99.90;;;;;;5051355;28;20389;-76
2024/03/24 01:27:57;;;;;;;1.00;0.80;;;5.90;99.90;;;;;;5053321;28;20378;-77
2024/03/24 01:30:23;;;;;;;1.88;0.90;;;5.30;99.90;;;;;;5053352;28;20401;-76
2024/03/24 01:32:48;;;;;;;1.60;1.00;;;7.30;99.90;;;;;;5062209;28;20491;-76
2024/03/24 01:35:15;;;;;;;1.05;0.85;;;;;;;;;;5051999;28;20396;-76
2024/03/24 01:37:41;;;;;;;2.10;1.10;;;5.30;99.90;;;;;;5051556;28;20393;-77
2024/03/24 01:40:07;;;;;;;2.20;1.10;;;5.90;99.90;;;;;;5052619;28;20932;-77
2024/03/24 01:42:32;;;;;;;1.10;1.00;;;5.80;99.90;;;;;;5052588;28;20377;-77
2024/03/24 01:44:58;;;;;;;1.95;1.10;;;5.60;99.90;;;;;;5052706;28;20943;-77
2024/03/24 01:47:24;;;;;;;1.73;1.08;;;5.20;99.90;;;;;;5051779;28;20405;-77
2024/03/24 01:49:49;;;;;;;2.17;1.10;;;5.60;99.90;;;;;;5052170;28;20393;-77
2024/03/24 01:52:15;;;;;;;3.60;1.30;;;;;;;;;;5052446;28;20455;-77
2024/03/24 01:54:41;;;;;;;1.70;0.90;;;5.30;99.90;;;;;;5051987;28;20381;-77
2024/03/24 01:57:06;;;;;;;1.70;0.95;;;5.20;99.90;;;;;;5052385;28;20390;-77
2024/03/24 01:59:33;;;;;;;1.37;0.90;;;5.40;99.90;;;;;;5052129;28;20392;-78
2024/03/24 02:01:59;;;;;;;1.43;1.00;;;5.00;99.90;;;;;;5032810;28;20525;-77
2024/03/24 02:04:24;;;;;;;1.83;0.80;;;5.30;99.90;;;;;;5033082;28;20382;-77
2024/03/24 02:06:50;;;;;;;1.27;0.90;;;5.50;99.90;;;;;;5050724;28;20885;-75
2024/03/24 02:09:15;;;;;;;0.83;0.83;;;5.40;99.90;;;;;;5052969;28;20377;-77
2024/03/24 02:11:42;;;;;;;0.97;0.70;;;4.70;99.90;;;;;;5053677;28;20518;-77
2024/03/24 02:14:07;;;;;;;1.77;1.00;;;4.80;99.90;;;;;;5050642;28;20397;-78
2024/03/24 02:16:33;;;;;;;2.00;0.90;;;5.20;99.90;;;;;;5035149;28;20394;-78
2024/03/24 02:18:59;;;;;;;1.25;0.90;;;5.40;99.90;;;;;;5052620;28;20508;-77
2024/03/24 02:21:25;;;;;;;1.27;1.00;;;5.20;99.90;;;;;;5051733;28;20405;-77
2024/03/24 02:23:50;;;;;;;0.95;0.90;;;5.40;99.90;;;;;;5051617;28;20396;-78
2024/03/24 02:26:16;;;;;;;1.63;1.03;;;5.50;99.90;;;;;;5053237;28;20444;-76
2024/03/24 02:28:42;;;;;;;0.90;0.80;;;5.50;99.90;;;;;;5051789;28;21023;-77
2024/03/24 02:31:08;;;;;;;1.73;1.10;;;5.00;99.90;;;;;;5053060;28;20393;-77
2024/03/24 02:33:33;;;;;;;1.10;1.00;;;5.20;99.90;;;;;;5051456;28;20386;-77
2024/03/24 02:35:59;;;;;;;1.10;1.00;;;5.40;99.90;;;;;;5056900;28;20405;-77
2024/03/24 02:38:24;;;;;;;1.23;1.00;;;5.00;99.90;;;;;;5053451;28;20388;-77
2024/03/24 02:40:50;;;;;;;2.60;1.10;;;;;;;;;;5051946;28;20398;-76
2024/03/24 02:43:16;;;;;;;1.30;1.08;;;5.40;99.90;;;;;;5051344;28;20389;-78
2024/03/24 02:45:42;;;;;;;1.80;1.00;;;5.30;99.90;;;;;;5050677;28;20515;-77
2024/03/24 02:48:08;;;;;;;1.50;1.00;;;4.90;99.90;;;;;;5051380;28;20392;-77
2024/03/24 02:50:34;;;;;;;1.85;1.20;;;5.30;99.90;;;;;;5050616;28;20394;-78
2024/03/24 02:53:00;;;;;;;1.10;1.00;;;5.60;99.90;;;;;;5050091;28;20397;-77
2024/03/24 02:55:25;;;;;;;2.70;1.20;;;5.60;99.90;;;;;;5050562;28;20389;-77
2024/03/24 02:57:52;;;;;;;2.13;1.10;;;5.10;99.90;;;;;;5052222;28;20920;-77
2024/03/24 03:00:17;;;;;;;2.17;1.13;;;5.20;99.90;;;;;;5051450;28;20417;-77
2024/03/24 03:02:43;;;;;;;2.20;1.40;;;5.30;99.90;;;;;;5050220;28;20765;-77
2024/03/24 03:05:09;;;;;;;2.60;1.50;;;5.50;99.90;;;;;;5049094;28;20388;-76
2024/03/24 03:07:35;;;;;;;1.90;1.10;;;5.50;99.90;;;;;;5050204;28;20389;-77
2024/03/24 03:10:04;;;;;;;1.70;1.47;;;5.20;99.90;;;;;;5050910;28;20788;-77
2024/03/24 03:12:29;;;;;;;1.90;1.50;;;5.50;99.90;;;;;;5051532;28;20934;-76
2024/03/24 03:14:55;;;;;;;2.80;1.40;;;5.60;99.90;;;;;;5054247;28;20401;-76
2024/03/24 03:17:21;;;;;;;2.20;1.77;;;;;;;;;;5080802;22;20779;-83
2024/03/24 03:19:46;;;;;;;2.33;1.55;;;5.50;99.90;;;;;;5052950;28;20883;-82
2024/03/24 03:22:12;;;;;;;1.83;1.53;;;5.50;99.90;;;;;;5043722;28;20390;-82
2024/03/24 03:24:37;;;;;;;3.10;1.50;;;5.30;99.90;;;;;;5036741;28;20394;-82
2024/03/24 03:27:03;;;;;;;2.10;1.70;;;5.60;99.90;;;;;;5052309;28;20392;-83
2024/03/24 03:29:28;;;;;;;1.40;1.20;;;5.60;99.90;;;;;;5034581;28;20390;-83
2024/03/24 03:31:54;;;;;;;1.92;1.25;;;5.50;99.90;;;;;;5028879;28;20441;-82
2024/03/24 03:34:20;;;;;;;1.10;1.00;;;5.50;99.90;;;;;;5033780;28;20394;-83
2024/03/24 03:36:45;;;;;;;2.00;1.20;;;5.00;99.90;;;;;;5030545;28;20387;-81
2024/03/24 03:39:11;;;;;;;2.40;0.90;;;5.20;99.90;;;;;;5051111;28;20385;-82
2024/03/24 03:41:36;;;;;;;1.07;0.97;;;5.30;99.90;;;;;;5054259;28;20455;-82
2024/03/24 03:44:02;;;;;;;1.97;1.00;;;5.50;99.90;;;;;;5053808;28;20389;-82
2024/03/24 03:46:27;;;;;;;1.25;0.88;;;5.40;99.90;;;;;;5048116;28;20403;-82
2024/03/24 03:48:53;;;;;;;1.90;1.02;;;5.40;99.90;;;;;;5033041;28;20380;-82
2024/03/24 03:51:27;;;;;;;1.20;0.88;;;5.20;99.90;;;;;;5033893;28;20391;-82
2024/03/24 03:53:55;;;;;;;1.80;0.88;;;5.20;99.90;;;;;;5031613;28;20883;-83
2024/03/24 03:56:20;;;;;;;1.73;1.17;;;5.30;99.90;;;;;;5063809;28;20397;-81
2024/03/24 03:58:46;;;;;;;1.10;1.00;;;5.40;99.90;;;;;;5033548;28;20397;-81
2024/03/24 04:01:11;;;;;;;2.03;0.90;;;5.30;99.90;;;;;;5046163;28;20398;-80
2024/03/24 04:03:37;;;;;;;1.30;0.80;;;5.10;99.90;;;;;;5045758;28;20934;-81
2024/03/24 04:06:03;;;;;;;1.60;1.20;;;5.10;99.90;;;;;;5033516;28;20386;-82
2024/03/24 04:08:29;;;;;;;1.50;0.80;;;5.60;99.90;;;;;;5061230;28;20389;-82
2024/03/24 04:10:54;;;;;;;2.13;0.90;;;5.40;99.90;;;;;;5047097;28;20393;-81
2024/03/24 04:13:20;;;;;;;1.90;1.00;;;5.50;99.90;;;;;;5056587;28;20396;-81
2024/03/24 04:15:45;;;;;;;1.40;1.00;;;5.50;99.90;;;;;;5065178;28;20377;-80
2024/03/24 04:18:11;;;;;;;2.10;0.93;;;5.20;99.90;;;;;;5043319;28;20430;-82
2024/03/24 04:20:37;;;;;;;1.47;0.87;;;5.30;99.90;;;;;;5040309;28;20506;-81
2024/03/24 04:23:04;;;;;;;2.00;0.90;;;5.50;99.90;;;;;;5058981;28;20416;-81
2024/03/24 04:25:29;;;;;;;0.82;0.70;;;5.30;99.90;;;;;;5043378;28;20398;-81
2024/03/24 04:27:55;;;;;;;1.58;0.98;;;5.30;99.90;;;;;;5042229;28;20383;-80
2024/03/24 04:30:20;;;;;;;0.90;0.80;;;5.30;99.90;;;;;;5038731;28;20453;-81
2024/03/24 04:32:46;;;;;;;1.90;0.90;;;5.10;99.90;;;;;;5036017;28;20390;-80
2024/03/24 04:35:12;;;;;;;1.63;1.10;;;5.40;99.90;;;;;;5049922;28;20954;-81
2024/03/24 04:37:38;;;;;;;3.78;1.40;;;5.20;99.90;;;;;;5034599;28;20403;-80
2024/03/24 04:40:08;;;;;;;2.13;1.10;;;5.00;99.90;;;;;;5033777;28;20445;-81
2024/03/24 04:42:33;;;;;;;1.30;1.05;;;5.20;99.90;;;;;;5050021;28;20927;-81
2024/03/24 04:45:01;;;;;;;1.30;1.20;;;4.70;99.90;;;;;;5042557;28;20483;-83
2024/03/24 04:47:27;;;;;;;2.05;1.00;;;5.10;99.90;;;;;;5041182;28;20390;-81
2024/03/24 04:49:53;;;;;;;1.20;1.10;;;4.90;99.90;;;;;;5032526;28;20394;-82
2024/03/24 04:52:18;;;;;;;1.55;1.20;;;5.00;99.90;;;;;;5034334;28;20394;-80
2024/03/24 04:54:44;;;;;;;2.70;1.10;;;5.20;99.90;;;;;;5034283;28;20395;-80
2024/03/24 04:57:09;;;;;;;2.90;1.20;;;4.70;99.90;;;;;;5033526;28;20379;-81
2024/03/24 04:59:35;;;;;;;2.70;2.00;;;4.80;99.90;;;;;;5034301;28;20391;-81
2024/03/24 05:02:00;;;;;;;1.40;1.30;;;4.90;99.90;;;;;;5034488;28;20490;-80
2024/03/24 05:04:26;;;;;;;1.27;1.17;;;5.10;99.90;;;;;;5034243;28;20395;-81
2024/03/24 05:06:51;;;;;;;1.58;1.20;;;5.10;99.90;;;;;;5033362;28;20379;-80
2024/03/24 05:09:17;;;;;;;2.20;1.40;;;4.90;99.90;;;;;;5034579;28;20387;-81
2024/03/24 05:11:44;;;;;;;1.65;1.10;;;5.00;99.90;;;;;;5033316;28;20455;-81
2024/03/24 05:14:10;;;;;;;2.10;1.10;;;5.80;99.90;;;;;;5032611;28;20480;-81
2024/03/24 05:16:37;;;;;;;1.30;1.20;;;4.80;99.90;;;;;;5049606;28;20391;-81
2024/03/24 05:19:03;;;;;;;1.40;1.17;;;5.00;99.90;;;;;;5047303;28;20399;-83
2024/03/24 05:21:29;;;;;;;1.30;1.00;;;4.80;99.90;;;;;;5034957;28;20399;-82
2024/03/24 05:23:55;;;;;;;0.90;0.90;;;4.90;99.90;;;;;;5040923;28;20394;-82
2024/03/24 05:26:21;;;;;;;1.13;1.00;;;4.70;99.90;;;;;;5034726;28;21030;-82
2024/03/24 05:28:47;;;;;;;2.17;1.00;;;4.90;99.90;;;;;;5037206;28;20422;-81
2024/03/24 05:31:12;;;;;;;1.20;1.00;;;4.80;99.90;;;;;;5054625;28;20385;-82
2024/03/24 05:33:38;;;;;;;1.95;1.00;;;4.70;99.90;;;;;;5056133;28;20390;-82
2024/03/24 05:36:04;;;;;;;1.20;0.90;;;4.70;99.90;;;;;;5057671;28;20385;-82
2024/03/24 05:38:33;;;;;;;0.80;0.80;;;5.10;99.90;;;;;;5044999;28;20481;-81
2024/03/24 05:41:00;;;;;;;0.60;0.60;;;4.90;99.90;;;;;;5064397;28;20413;-81
2024/03/24 05:43:26;;;;;;;2.05;0.80;;;5.60;99.90;;;;;;5041791;28;20386;-83
2024/03/24 05:45:55;;;;;;;1.60;0.80;;;5.10;99.90;;;;;;5038099;28;20403;-83
2024/03/24 05:48:22;;;;;;;1.30;0.68;;;5.40;99.90;;;;;;5050795;28;20380;-83
2024/03/24 05:51:00;;;;;;;0.90;0.70;;;5.20;99.90;;;;;;5073820;28;20476;-81
2024/03/24 05:53:25;;;;;;;1.37;0.57;;;5.30;99.90;;;;;;5073598;28;20932;-83
2024/03/24 05:55:51;;;;;;;0.67;0.40;;;5.40;99.90;;;;;;5050207;28;20390;-82
2024/03/24 05:58:18;;;;;;;1.00;0.40;;;5.80;99.90;;;;;;5036028;28;20399;-82
2024/03/24 06:00:44;;;;;;;0.70;0.50;;;4.90;99.90;;;;;;5053828;28;20417;-82
2024/03/24 06:03:09;;;;;;;0.80;0.40;;;5.10;99.90;;;;;;5047928;28;20391;-84
2024/03/24 06:05:40;;;;;;;1.07;0.50;;;5.30;99.90;;;;;;5041424;28;20404;-82
2024/03/24 06:08:08;;;;;;;0.80;0.60;;;5.40;99.90;;;;;;5053778;28;20464;-83
2024/03/24 06:10:34;;;;;;;1.27;0.60;;;5.30;99.90;;;;;;5038540;28;20417;-83
2024/03/24 06:13:00;;;;;;;0.50;0.40;;;5.80;99.90;;;;;;5037282;28;20927;-82
2024/03/24 06:15:25;;;;;;;2.00;0.50;;;5.40;99.90;;;;;;5053321;28;20383;-83
2024/03/24 06:17:51;;;;;;;1.00;0.40;;;5.60;99.90;;;;;;5056626;28;20502;-83
2024/03/24 06:20:16;;;;;;;1.40;0.50;;;5.60;99.90;;;;;;5037303;28;20823;-82
2024/03/24 06:22:42;;;;;;;0.70;0.57;;;5.30;99.90;;;;;;5037164;28;20387;-82
2024/03/24 06:25:08;;;;;;;1.20;0.40;;;5.60;99.90;;;;;;5049579;28;20393;-83
2024/03/24 06:27:35;;;;;;;0.70;0.40;;;5.60;99.90;;;;;;5037476;28;20383;-82
2024/03/24 06:30:01;;;;;;;1.73;0.50;;;5.30;99.90;;;;;;5035692;28;20474;-82
2024/03/24 06:32:26;;;;;;;0.80;0.50;;;5.50;99.90;;;;;;5037034;28;20384;-81
2024/03/24 06:34:52;;;;;;;1.17;0.60;;;5.70;99.90;;;;;;5052614;28;20402;-82
2024/03/24 06:37:17;;;;;;;0.80;0.40;;;5.90;99.90;;;;;;5046547;28;20477;-82
2024/03/24 06:39:43;;;;;;;1.23;0.50;;;5.50;99.90;;;;;;5066981;28;20894;-81
2024/03/24 06:42:08;;;;;;;1.40;0.50;;;6.80;99.90;;;;;;5065823;28;20460;-80
2024/03/24 06:44:40;;;;;;;0.60;0.50;;;5.90;99.90;;;;;;5049943;28;20391;-80
2024/03/24 06:47:06;;;;;;;2.10;0.60;;;5.70;99.90;;;;;;5063418;28;20399;-80
2024/03/24 06:49:32;;;;;;;0.70;0.50;;;5.60;99.90;;;;;;5064412;28;20446;-82
2024/03/24 06:51:57;;;;;;;1.73;0.50;;;5.90;99.90;;;;;;5048860;28;20410;-81
2024/03/24 06:54:23;;;;;;;1.20;0.63;;;5.80;99.90;;;;;;5064734;28;20403;-80
2024/03/24 06:56:49;;;;;;;0.90;0.60;;;;;;;;;;5049078;28;20806;-80
2024/03/24 06:59:15;;;;;;;1.40;0.40;;;6.10;99.90;;;;;;5058633;28;20393;-81
2024/03/24 07:01:40;;;;;;;0.85;0.60;;;5.60;99.90;;;;;;5042923;28;20469;-81
2024/03/24 07:04:06;;;;;;;1.10;0.60;;;5.70;99.90;;;;;;5052008;28;20388;-84
2024/03/24 07:06:32;;;;;;;1.03;0.50;;;5.60;99.90;;;;;;5063897;28;20384;-83
2024/03/24 07:08:58;;;;;;;1.50;0.60;;;5.60;99.90;;;;;;5040075;28;20383;-82
2024/03/24 07:11:23;;;;;;;1.90;0.70;;;5.40;99.90;;;;;;5034646;28;20394;-82
2024/03/24 07:13:49;;;;;;;1.73;0.70;;;5.50;99.90;;;;;;5052063;28;20402;-82
2024/03/24 07:16:14;;;;;;;2.60;1.00;;;5.50;99.90;;;;;;5037041;28;20639;-81
2024/03/24 07:18:40;;;;;;;1.40;0.80;;;5.70;99.90;;;;;;5036145;28;20903;-82
2024/03/24 07:21:07;;;;;;;3.15;0.88;;;5.50;99.90;;;;;;5036880;28;20413;-81
2024/03/24 07:23:33;;;;;;;1.60;0.50;;;5.50;99.90;;;;;;5059103;28;20893;-81
2024/03/24 07:25:58;;;;;;;2.20;0.70;;;6.00;99.90;;;;;;5050925;28;20411;-81
2024/03/24 07:28:24;;;;;;;1.70;0.80;;;5.80;99.90;;;;;;5036018;28;20402;-80
2024/03/24 07:30:50;;;;;;;1.73;0.80;;;6.00;99.90;;;;;;5029336;28;20819;-81
2024/03/24 07:33:15;;;;;;;2.07;1.00;;;5.80;99.90;;;;;;5027275;28;20387;-81
2024/03/24 07:35:41;;;;;;;1.47;0.90;;;5.60;99.90;;;;;;5027819;28;20469;-81
2024/03/24 07:38:07;;;;;;;1.40;0.70;;;5.70;99.90;;;;;;5026716;28;20381;-83
2024/03/24 07:40:33;;;;;;;1.60;0.60;;;5.80;99.90;;;;;;5044444;28;20422;-83
2024/03/24 07:42:58;;;;;;;4.30;0.60;;;5.70;99.90;;;;;;5025256;28;20457;-81
2024/03/24 07:45:24;;;;;;;2.40;0.70;;;6.20;99.90;;;;;;5040804;28;20403;-82
2024/03/24 07:47:51;;;;;;;1.30;0.60;;;6.50;99.90;;;;;;5024963;28;20394;-81
2024/03/24 07:50:17;;;;;;;1.90;0.80;;;6.10;99.90;;;;;;5027732;28;20391;-82
2024/03/24 07:52:43;;;;;;;0.82;0.70;;;6.30;99.90;;;;;;5034703;28;20418;-82
2024/03/24 07:55:08;;;;;;;1.20;0.95;;;6.40;99.90;;;;;;5046261;28;21104;-83
2024/03/24 07:57:34;;;;;;;1.55;0.70;;;6.80;99.90;;;;;;5031875;28;20899;-82
2024/03/24 08:00:00;;;;;;;1.93;0.90;;;6.60;99.90;;;;;;5025102;28;20578;-82
2024/03/24 08:02:25;;;;;;;0.90;0.70;;;6.50;99.90;;;;;;5024858;28;20963;-81
2024/03/24 08:04:51;;;;;;;1.33;0.60;;;7.90;99.90;;;;;;5064605;28;20789;-81
2024/03/24 08:07:17;;;;;;;2.03;0.70;;;6.70;99.90;;;;;;5063816;28;20383;-81
2024/03/24 08:09:42;;;;;;;2.03;0.80;;;6.00;99.90;;;;;;5045152;28;20840;-81
2024/03/24 08:12:08;;;;;;;1.20;0.60;;;6.30;99.90;;;;;;5038607;28;20485;-81
2024/03/24 08:14:33;;;;;;;1.93;0.93;;;6.60;99.90;;;;;;5031160;28;20393;-81
2024/03/24 08:16:59;;;;;;;3.07;0.80;;;6.50;99.90;;;;;;5026637;28;20445;-81
2024/03/24 08:19:24;;;;;;;2.80;1.10;;;6.20;99.90;;;;;;5040218;28;20399;-82
2024/03/24 08:21:54;;;;;;;1.50;1.00;;;6.20;99.90;;;;;;5030245;28;20411;-81
2024/03/24 08:24:19;;;;;;;1.23;0.60;;;6.30;99.90;;;;;;5048414;28;20461;-83
2024/03/24 08:26:45;;;;;;;2.50;0.70;;;6.20;99.90;;;;;;5048116;28;20391;-83
2024/03/24 08:29:10;;;;;;;2.63;0.80;;;6.20;99.90;;;;;;5051088;28;20399;-82
2024/03/24 08:31:36;;;;;;;2.80;0.90;;;6.70;99.90;;;;;;5057011;28;20423;-80
2024/03/24 08:34:01;;;;;;;1.30;0.80;;;6.70;99.90;;;;;;5061416;28;20399;-82
2024/03/24 08:36:27;;;;;;;1.20;1.00;;;6.40;99.90;;;;;;5030757;28;20407;-82
2024/03/24 08:38:53;;;;;;;2.90;0.87;;;6.90;99.90;;;;;;5030430;28;20895;-82
2024/03/24 08:41:18;;;;;;;4.00;1.00;;;6.60;99.90;;;;;;5030071;28;20934;-81
2024/03/24 08:43:44;;;;;;;2.60;0.80;;;6.70;99.90;;;;;;5036485;28;20441;-82
2024/03/24 08:46:09;;;;;;;1.48;0.80;;;6.60;99.90;;;;;;5050906;28;20379;-81
2024/03/24 08:48:35;;;;;;;1.90;0.70;;;6.60;99.90;;;;;;5030926;28;20429;-81
2024/03/24 08:51:00;;;;;;;3.03;0.80;;;6.60;99.90;;;;;;5026662;28;20470;-80
2024/03/24 08:53:26;;;;;;;2.63;1.00;;;6.50;99.90;;;;;;5024904;28;20402;-82
2024/03/24 08:55:52;;;;;;;2.40;1.30;;;7.00;99.90;;;;;;5032083;28;20442;-81
2024/03/24 08:58:17;;;;;;;1.65;0.77;;;7.10;99.90;;;;;;5037769;28;20414;-81
2024/03/24 09:00:45;;;;;;;1.10;0.70;;;6.80;99.90;;;;;;5033669;28;21516;-82
2024/03/24 09:03:11;;;;;;;2.40;1.10;;;6.40;99.90;;;;;;5044943;28;20427;-82
2024/03/24 09:05:36;;;;;;;2.60;1.33;;;6.70;99.90;;;;;;5031082;28;20883;-83
2024/03/24 09:08:02;;;;;;;4.22;1.15;;;6.90;99.90;;;;;;5032072;28;20403;-81
2024/03/24 09:10:27;;;;;;;2.17;1.10;;;7.10;99.90;;;;;;5041710;28;20390;-82
2024/03/24 09:12:53;;;;;;;3.30;1.10;;;7.10;99.90;;;;;;5037990;28;20938;-82
2024/03/24 09:15:19;;;;;;;2.50;1.10;;;7.40;99.90;;;;;;5037986;28;20908;-82
2024/03/24 09:17:44;;;;;;;1.80;0.80;;;7.20;99.90;;;;;;5062953;22;20501;-77
2024/03/24 09:20:10;;;;;;;1.20;1.10;;;;;;;;;;5051535;28;20384;-78
2024/03/24 09:22:36;;;;;;;4.82;1.00;;;7.90;99.90;;;;;;5045966;28;20437;-77
2024/03/24 09:25:02;;;;;;;1.50;0.82;;;7.10;99.90;;;;;;5048050;28;20389;-79
2024/03/24 09:27:27;;;;;;;2.50;0.98;;;7.10;99.90;;;;;;5048994;28;20391;-80
2024/03/24 09:29:53;;;;;;;1.50;0.90;;;6.60;99.90;;;;;;5037720;28;20389;-79
2024/03/24 09:32:18;;;;;;;2.20;1.20;;;6.50;99.90;;;;;;5051778;28;20474;-78
2024/03/24 09:34:44;;;;;;;1.30;1.10;;;7.00;99.90;;;;;;5054903;28;20476;-78
2024/03/24 09:37:09;;;;;;;3.00;1.30;;;6.90;99.90;;;;;;5054847;28;20746;-78
2024/03/24 09:39:35;;;;;;;2.00;1.00;;;6.70;99.90;;;;;;5057604;28;20385;-78
2024/03/24 09:42:03;;;;;;;3.35;1.00;;;6.90;99.90;;;;;;5056906;28;20444;-77
2024/03/24 09:44:30;;;;;;;5.35;1.17;;;6.80;99.90;;;;;;5037641;28;20441;-77
2024/03/24 09:46:59;;;;;;;3.00;1.00;;;6.70;99.90;;;;;;5031931;28;20386;-77
2024/03/24 09:49:26;;;;;;;2.10;1.10;;;6.60;99.90;;;;;;5034295;28;20477;-77
2024/03/24 09:51:53;;;;;;;2.22;1.27;;;6.60;99.90;;;;;;5035958;28;20770;-77
2024/03/24 09:54:19;;;;;;;2.60;0.90;;;6.80;99.90;;;;;;5032842;28;20731;-78
2024/03/24 09:56:46;;;;;;;4.03;1.17;;;6.60;99.90;;;;;;5034195;28;20449;-78
2024/03/24 09:59:11;;;;;;;2.90;1.10;;;7.00;99.90;;;;;;5032636;28;20395;-78
2024/03/24 10:01:40;;;;;;;2.47;1.00;;;6.60;99.90;;;;;;5032239;28;20416;-76
2024/03/24 10:04:06;;;;;;;3.38;1.70;;;6.50;99.90;;;;;;5033934;28;20395;-78
2024/03/24 10:06:33;;;;;;;2.47;1.05;;;7.30;99.90;;;;;;5035088;28;20443;-78
2024/03/24 10:08:58;;;;;;;2.78;1.10;;;7.10;99.90;;;;;;5035739;28;20381;-77
2024/03/24 10:11:28;;;;;;;2.63;0.93;;;7.00;99.90;;;;;;5037841;28;20506;-78
2024/03/24 10:13:54;;;;;;;2.30;1.23;;;7.10;99.90;;;;;;5035981;28;20389;-78
2024/03/24 10:16:20;;;;;;;2.10;1.10;;;7.60;99.90;;;;;;5042980;28;20428;-77
2024/03/24 10:18:49;;;;;;;2.08;1.10;;;7.30;99.90;;;;;;5043686;28;20417;-78
2024/03/24 10:21:15;;;;;;;1.88;1.13;;;7.60;99.90;;;;;;5044248;28;20415;-76
2024/03/24 10:23:41;;;;;;;2.45;1.10;;;7.50;99.90;;;;;;5037739;28;20383;-78
2024/03/24 10:26:07;;;;;;;3.10;1.20;;;7.20;99.90;;;;;;5029749;28;20401;-76
2024/03/24 10:28:33;;;;;;;4.40;1.03;;;7.50;99.90;;;;;;5034090;28;20390;-78
2024/03/24 10:31:09;;;;;;;2.97;1.20;;;7.30;99.90;;;;;;5030529;28;20394;-78
2024/03/24 10:33:36;;;;;;;4.00;1.45;;;7.80;99.90;;;;;;5031896;28;20399;-77
2024/03/24 10:36:03;;;;;;;2.22;1.05;;;7.50;99.90;;;;;;5041099;28;20931;-78
2024/03/24 10:38:29;;;;;;;3.17;1.00;;;7.70;99.90;;;;;;5043641;28;20402;-78
2024/03/24 10:40:58;;;;;;;2.07;1.10;;;7.80;99.90;;;;;;5032094;28;20411;-78
2024/03/24 10:43:25;;;;;;;2.10;1.10;;;7.70;99.90;;;;;;5043833;28;20427;-77
2024/03/24 10:45:55;;;;;;;2.20;1.10;;;7.40;99.90;;;;;;5030475;28;20389;-78
2024/03/24 10:48:28;;;;;;;2.70;0.90;;;7.90;99.90;;;;;;5032570;28;20382;-78
2024/03/24 10:50:55;;;;;;;2.33;1.10;;;7.10;99.90;;;;;;5034445;28;20444;-78
2024/03/24 10:53:22;;;;;;;2.78;1.50;;;7.40;99.90;;;;;;5030433;28;20619;-81
2024/03/24 10:55:49;;;;;;;2.03;1.20;;;7.20;99.90;;;;;;5031188;28;20397;-78
2024/03/24 10:58:18;;;;;;;1.00;0.90;;;7.60;99.90;;;;;;5028572;28;20391;-78
2024/03/24 11:00:45;;;;;;;2.80;1.00;;;7.10;99.90;;;;;;5053420;28;20442;-78
2024/03/24 11:03:12;;;;;;;2.65;1.10;;;7.40;99.90;;;;;;5039197;28;20406;-78
2024/03/24 11:05:39;;;;;;;1.90;1.20;;;7.70;99.90;;;;;;5056120;28;20467;-78
2024/03/24 11:08:06;;;;;;;2.97;1.20;;;7.30;99.90;;;;;;5050443;28;20409;-78
2024/03/24 11:10:34;;;;;;;2.00;1.10;;;7.50;99.90;;;;;;5044737;28;20954;-78
2024/03/24 11:12:59;;;;;;;3.30;1.30;;;7.50;99.90;;;;;;5047217;28;20464;-78
2024/03/24 11:15:25;;;;;;;2.45;1.00;;;7.90;99.90;;;;;;5044185;28;20477;-81
2024/03/24 11:17:51;;;;;;;5.50;1.30;;;8.00;99.90;;;;;;5035044;28;20447;-78
2024/03/24 11:20:20;;;;;;;2.67;0.88;;;7.70;99.90;;;;;;5032737;28;20386;-79
2024/03/24 11:22:48;;;;;;;1.75;0.88;;;8.20;99.90;;;;;;5035888;28;20390;-80
2024/03/24 11:25:15;;;;;;;3.10;1.03;;;7.90;99.90;;;;;;5040394;28;20396;-80
2024/03/24 11:27:44;;;;;;;2.47;1.10;;;8.20;99.90;;;;;;5049817;28;20381;-77
2024/03/24 11:30:17;;;;;;;1.92;1.00;;;8.80;99.90;;;;;;5042687;28;20441;-78
2024/03/24 11:33:00;;;;;;;2.40;1.10;;;9.10;99.90;;;;;;5037128;28;20383;-79
2024/03/24 11:35:30;;;;;;;1.90;1.30;;;8.60;99.90;;;;;;5047198;28;20765;-78
2024/03/24 11:37:57;;;;;;;3.92;1.20;;;9.00;99.90;;;;;;5031256;28;20390;-79
2024/03/24 11:40:29;;;;;;;1.58;1.10;;;8.50;99.90;;;;;;5032255;28;20445;-78
2024/03/24 11:42:58;;;;;;;2.35;1.20;;;8.40;99.90;;;;;;5032552;28;20946;-78
2024/03/24 11:45:32;;;;;;;2.63;0.95;;;8.70;99.90;;;;;;5050474;28;20397;-78
2024/03/24 11:48:16;;;;;;;3.03;1.10;;;8.60;99.90;;;;;;5046667;28;20493;-78
2024/03/24 11:50:43;;;;;;;2.13;1.03;;;8.50;99.90;;;;;;5051172;28;20491;-78
2024/03/24 11:53:10;;;;;;;2.30;1.00;;;8.50;99.90;;;;;;5043512;28;20507;-77
2024/03/24 11:55:38;;;;;;;2.60;1.20;;;8.50;99.90;;;;;;5034678;28;20875;-76
2024/03/24 11:58:06;;;;;;;2.25;1.00;;;9.30;99.90;;;;;;5037248;28;20390;-79
2024/03/24 12:00:32;;;;;;;2.40;1.00;;;9.20;99.90;;;;;;5060988;28;20412;-78
2024/03/24 12:02:58;;;;;;;2.33;0.70;;;9.00;99.90;;;;;;5055479;28;20385;-78
2024/03/24 12:05:24;;;;;;;1.75;1.00;;;9.30;99.90;;;;;;5040306;28;20397;-79
2024/03/24 12:07:50;;;;;;;2.30;1.10;;;9.80;99.90;;;;;;5044764;28;20806;-79
2024/03/24 12:10:16;;;;;;;2.40;1.20;;;9.50;99.90;;;;;;5048350;28;20399;-78
2024/03/24 12:12:42;;;;;;;4.20;1.07;;;9.50;99.90;;;;;;5031047;28;20398;-79
2024/03/24 12:15:09;;;;;;;1.80;0.90;;;8.90;99.90;;;;;;5045697;28;20385;-79
2024/03/24 12:17:34;;;;;;;2.72;1.13;;;9.70;99.90;;;;;;5051446;28;20484;-80
2024/03/24 12:20:03;;;;;;;2.37;1.20;;;10.20;99.90;;;;;;5034566;28;20430;-78
2024/03/24 12:22:29;;;;;;;1.90;1.10;;;9.50;99.90;;;;;;5033258;28;20406;-78
2024/03/24 12:24:55;;;;;;;2.05;1.02;;;9.40;99.90;;;;;;5051473;28;20411;-80
2024/03/24 12:27:21;;;;;;;2.05;0.90;;;9.00;99.90;;;;;;5044060;28;20387;-78
2024/03/24 12:29:56;;;;;;;3.65;1.00;;;8.80;99.90;;;;;;5051466;28;20392;-80
2024/03/24 12:32:26;;;;;;;2.60;1.20;;;8.80;99.90;;;;;;5049072;28;20393;-79
2024/03/24 12:34:51;;;;;;;1.60;1.23;;;8.70;99.90;;;;;;5052698;28;20750;-78
2024/03/24 12:37:20;;;;;;;2.70;1.10;;;8.80;99.90;;;;;;5051008;28;20445;-78
2024/03/24 12:39:49;;;;;;;2.40;1.20;;;8.80;99.90;;;;;;5050823;28;20405;-78
2024/03/24 12:42:16;;;;;;;2.42;1.10;;;9.10;99.90;;;;;;5069950;28;20423;-78
2024/03/24 12:44:42;;;;;;;2.78;0.98;;;9.30;99.90;;;;;;5061181;28;20393;-80
2024/03/24 12:47:09;;;;;;;2.20;1.02;;;;;;;;;;5056503;28;20885;-79
2024/03/24 12:49:35;;;;;;;1.10;1.00;;;9.10;99.90;;;;;;5056426;28;20419;-80
2024/03/24 12:52:01;;;;;;;2.83;1.50;;;9.20;99.90;;;;;;5058245;28;20401;-79
2024/03/24 12:54:28;;;;;;;2.20;0.90;;;8.90;99.90;;;;;;5042174;28;21041;-79